Terminal Aerodrome Forecast
Issued by NWS Pueblo, CO

Home | Current Version | Previous Version | Text Only | Print | Product List | Glossary On
Versions: 1 2 3 4 5 6 7 8 9 10 11 12 13 14 15 16 17 18 19 20 21 22 23 24 25 26 27 28 29 30 31 32 33 34 35 36 37 38 39 40 41 42 43 44 45 46 47 48 49 50
000
FTUS45 KPUB 241206 AAA
TAFCOS
TAF AMD
KCOS 241206Z 2412/2512 VRB06KT 3SM BR SCT004 OVC009
      TEMPO 2412/2414 6SM BR SCT010 BKN020
     FM241400 32009KT P6SM FEW020 SCT090
     FM241800 33018G28KT P6SM SKC
     FM250100 35009KT P6SM FEW200=

USA.gov is the U.S. government's official web portal to all federal, state and local government web resources and services.